sensor_id;sensor_type;location;lat;lon;timestamp;P1;durP1;ratioP1;P2;durP2;ratioP2
25153;SDS011;47555;51.038;6.280;2023-03-20T00:00:20;23.70;;;11.45;;
25153;SDS011;47555;51.038;6.280;2023-03-20T00:02:59;21.17;;;10.65;;
25153;SDS011;47555;51.038;6.280;2023-03-20T00:05:25;25.77;;;12.30;;
25153;SDS011;47555;51.038;6.280;2023-03-20T00:07:52;21.42;;;11.40;;
25153;SDS011;47555;51.038;6.280;2023-03-20T00:10:19;23.67;;;11.63;;
25153;SDS011;47555;51.038;6.280;2023-03-20T00:12:46;22.70;;;10.90;;
25153;SDS011;47555;51.038;6.280;2023-03-20T00:17:55;20.98;;;10.32;;
25153;SDS011;47555;51.038;6.280;2023-03-20T00:20:21;22.75;;;11.48;;
25153;SDS011;47555;51.038;6.280;2023-03-20T00:22:47;21.23;;;10.73;;
25153;SDS011;47555;51.038;6.280;2023-03-20T00:25:17;21.65;;;11.23;;
25153;SDS011;47555;51.038;6.280;2023-03-20T00:27:45;25.80;;;11.38;;
25153;SDS011;47555;51.038;6.280;2023-03-20T00:30:21;26.58;;;11.82;;
25153;SDS011;47555;51.038;6.280;2023-03-20T00:32:50;24.48;;;11.02;;
25153;SDS011;47555;51.038;6.280;2023-03-20T00:35:21;24.88;;;10.95;;
25153;SDS011;47555;51.038;6.280;2023-03-20T00:37:50;27.38;;;11.05;;
25153;SDS011;47555;51.038;6.280;2023-03-20T00:40:17;23.08;;;10.80;;
25153;SDS011;47555;51.038;6.280;2023-03-20T00:42:44;22.98;;;11.27;;
25153;SDS011;47555;51.038;6.280;2023-03-20T00:45:13;22.42;;;11.27;;
25153;SDS011;47555;51.038;6.280;2023-03-20T00:47:42;23.30;;;10.73;;
25153;SDS011;47555;51.038;6.280;2023-03-20T00:50:15;22.05;;;10.82;;
25153;SDS011;47555;51.038;6.280;2023-03-20T00:52:42;21.77;;;11.00;;
25153;SDS011;47555;51.038;6.280;2023-03-20T00:55:08;25.92;;;11.75;;
25153;SDS011;47555;51.038;6.280;2023-03-20T01:02:51;25.52;;;12.35;;
25153;SDS011;47555;51.038;6.280;2023-03-20T01:05:21;24.50;;;11.13;;
25153;SDS011;47555;51.038;6.280;2023-03-20T01:07:48;23.63;;;10.98;;
25153;SDS011;47555;51.038;6.280;2023-03-20T01:10:13;29.88;;;12.63;;
25153;SDS011;47555;51.038;6.280;2023-03-20T01:12:39;29.55;;;13.27;;
25153;SDS011;47555;51.038;6.280;2023-03-20T01:15:17;25.25;;;11.15;;
25153;SDS011;47555;51.038;6.280;2023-03-20T01:17:45;22.10;;;11.38;;
25153;SDS011;47555;51.038;6.280;2023-03-20T01:20:18;25.15;;;11.48;;
25153;SDS011;47555;51.038;6.280;2023-03-20T01:22:46;24.95;;;11.80;;
25153;SDS011;47555;51.038;6.280;2023-03-20T01:25:12;23.73;;;11.25;;
25153;SDS011;47555;51.038;6.280;2023-03-20T01:27:38;22.65;;;11.13;;
25153;SDS011;47555;51.038;6.280;2023-03-20T01:30:09;20.02;;;10.90;;
25153;SDS011;47555;51.038;6.280;2023-03-20T01:32:41;23.83;;;10.40;;
25153;SDS011;47555;51.038;6.280;2023-03-20T01:35:10;22.35;;;10.80;;
25153;SDS011;47555;51.038;6.280;2023-03-20T01:37:37;24.17;;;10.40;;
25153;SDS011;47555;51.038;6.280;2023-03-20T01:40:02;21.42;;;10.25;;
25153;SDS011;47555;51.038;6.280;2023-03-20T01:42:35;20.58;;;9.80;;
25153;SDS011;47555;51.038;6.280;2023-03-20T01:45:04;22.75;;;10.90;;
25153;SDS011;47555;51.038;6.280;2023-03-20T01:47:45;20.50;;;9.73;;
25153;SDS011;47555;51.038;6.280;2023-03-20T01:50:25;19.30;;;10.10;;
25153;SDS011;47555;51.038;6.280;2023-03-20T01:52:55;17.83;;;9.90;;
25153;SDS011;47555;51.038;6.280;2023-03-20T01:55:34;18.75;;;8.80;;
25153;SDS011;47555;51.038;6.280;2023-03-20T01:58:02;18.52;;;8.80;;
25153;SDS011;47555;51.038;6.280;2023-03-20T02:00:31;18.75;;;8.68;;
25153;SDS011;47555;51.038;6.280;2023-03-20T02:03:00;15.25;;;7.85;;
25153;SDS011;47555;51.038;6.280;2023-03-20T02:05:27;19.80;;;8.85;;
25153;SDS011;47555;51.038;6.280;2023-03-20T02:08:01;19.40;;;7.95;;
25153;SDS011;47555;51.038;6.280;2023-03-20T02:10:35;18.48;;;8.23;;
25153;SDS011;47555;51.038;6.280;2023-03-20T02:13:01;17.55;;;8.05;;
25153;SDS011;47555;51.038;6.280;2023-03-20T02:15:35;20.75;;;8.40;;
25153;SDS011;47555;51.038;6.280;2023-03-20T02:18:16;15.82;;;8.23;;
25153;SDS011;47555;51.038;6.280;2023-03-20T02:27:12;13.95;;;6.70;;
25153;SDS011;47555;51.038;6.280;2023-03-20T02:32:35;12.05;;;6.32;;
25153;SDS011;47555;51.038;6.280;2023-03-20T02:37:52;14.30;;;7.50;;
25153;SDS011;47555;51.038;6.280;2023-03-20T02:43:08;13.48;;;6.15;;
25153;SDS011;47555;51.038;6.280;2023-03-20T02:45:56;14.68;;;6.47;;
25153;SDS011;47555;51.038;6.280;2023-03-20T02:51:18;17.23;;;7.03;;
25153;SDS011;47555;51.038;6.280;2023-03-20T02:53:54;14.52;;;6.47;;
25153;SDS011;47555;51.038;6.280;2023-03-20T03:02:22;11.48;;;6.15;;
25153;SDS011;47555;51.038;6.280;2023-03-20T03:04:58;14.05;;;6.68;;
25153;SDS011;47555;51.038;6.280;2023-03-20T03:07:29;15.60;;;7.10;;
25153;SDS011;47555;51.038;6.280;2023-03-20T03:10:00;13.88;;;6.20;;
25153;SDS011;47555;51.038;6.280;2023-03-20T03:12:32;14.00;;;6.40;;
25153;SDS011;47555;51.038;6.280;2023-03-20T03:15:03;13.63;;;6.95;;
25153;SDS011;47555;51.038;6.280;2023-03-20T03:17:38;12.27;;;6.72;;
25153;SDS011;47555;51.038;6.280;2023-03-20T03:20:19;13.05;;;5.50;;
25153;SDS011;47555;51.038;6.280;2023-03-20T03:22:52;13.55;;;6.85;;
25153;SDS011;47555;51.038;6.280;2023-03-20T03:25:17;14.55;;;6.50;;
25153;SDS011;47555;51.038;6.280;2023-03-20T03:27:49;15.20;;;6.50;;
25153;SDS011;47555;51.038;6.280;2023-03-20T03:30:24;15.57;;;6.82;;
25153;SDS011;47555;51.038;6.280;2023-03-20T03:33:07;15.45;;;7.13;;
25153;SDS011;47555;51.038;6.280;2023-03-20T03:35:34;17.67;;;7.82;;
25153;SDS011;47555;51.038;6.280;2023-03-20T03:40:56;18.70;;;8.02;;
25153;SDS011;47555;51.038;6.280;2023-03-20T03:43:32;17.85;;;7.90;;
25153;SDS011;47555;51.038;6.280;2023-03-20T03:46:07;17.67;;;7.53;;
25153;SDS011;47555;51.038;6.280;2023-03-20T03:48:39;15.52;;;7.82;;
25153;SDS011;47555;51.038;6.280;2023-03-20T03:51:11;16.13;;;7.50;;
25153;SDS011;47555;51.038;6.280;2023-03-20T03:53:42;13.50;;;6.60;;
25153;SDS011;47555;51.038;6.280;2023-03-20T03:56:13;17.30;;;7.57;;
25153;SDS011;47555;51.038;6.280;2023-03-20T03:58:47;16.65;;;6.97;;
25153;SDS011;47555;51.038;6.280;2023-03-20T04:01:16;18.40;;;7.97;;
25153;SDS011;47555;51.038;6.280;2023-03-20T04:03:45;20.73;;;9.52;;
25153;SDS011;47555;51.038;6.280;2023-03-20T04:06:14;21.00;;;8.65;;
25153;SDS011;47555;51.038;6.280;2023-03-20T04:08:41;20.38;;;8.25;;
25153;SDS011;47555;51.038;6.280;2023-03-20T04:11:11;20.17;;;8.70;;
25153;SDS011;47555;51.038;6.280;2023-03-20T04:13:39;21.85;;;9.13;;
25153;SDS011;47555;51.038;6.280;2023-03-20T04:16:05;16.30;;;8.52;;
25153;SDS011;47555;51.038;6.280;2023-03-20T04:18:34;21.55;;;8.65;;
25153;SDS011;47555;51.038;6.280;2023-03-20T04:21:00;24.33;;;9.73;;
25153;SDS011;47555;51.038;6.280;2023-03-20T04:23:26;22.02;;;8.40;;
25153;SDS011;47555;51.038;6.280;2023-03-20T04:25:52;19.23;;;8.80;;
25153;SDS011;47555;51.038;6.280;2023-03-20T04:28:17;19.52;;;8.10;;
25153;SDS011;47555;51.038;6.280;2023-03-20T04:30:43;20.38;;;8.23;;
25153;SDS011;47555;51.038;6.280;2023-03-20T04:33:12;21.17;;;8.55;;
25153;SDS011;47555;51.038;6.280;2023-03-20T04:35:37;20.38;;;8.73;;
25153;SDS011;47555;51.038;6.280;2023-03-20T04:38:03;19.02;;;8.80;;
25153;SDS011;47555;51.038;6.280;2023-03-20T04:40:28;19.98;;;9.02;;
25153;SDS011;47555;51.038;6.280;2023-03-20T04:42:55;22.23;;;9.18;;
25153;SDS011;47555;51.038;6.280;2023-03-20T04:45:21;17.00;;;8.10;;
25153;SDS011;47555;51.038;6.280;2023-03-20T04:47:46;22.63;;;9.23;;
25153;SDS011;47555;51.038;6.280;2023-03-20T04:50:11;18.85;;;8.48;;
25153;SDS011;47555;51.038;6.280;2023-03-20T04:52:38;20.85;;;8.85;;
25153;SDS011;47555;51.038;6.280;2023-03-20T04:55:03;18.45;;;9.55;;
25153;SDS011;47555;51.038;6.280;2023-03-20T04:57:29;19.08;;;8.73;;
25153;SDS011;47555;51.038;6.280;2023-03-20T04:59:55;20.67;;;8.80;;
25153;SDS011;47555;51.038;6.280;2023-03-20T05:02:21;19.35;;;8.25;;
25153;SDS011;47555;51.038;6.280;2023-03-20T05:04:47;21.67;;;8.50;;
25153;SDS011;47555;51.038;6.280;2023-03-20T05:07:12;19.42;;;8.60;;
25153;SDS011;47555;51.038;6.280;2023-03-20T05:09:38;18.55;;;7.65;;
25153;SDS011;47555;51.038;6.280;2023-03-20T05:12:03;17.70;;;7.70;;
25153;SDS011;47555;51.038;6.280;2023-03-20T05:14:29;18.60;;;7.28;;
25153;SDS011;47555;51.038;6.280;2023-03-20T05:16:55;23.73;;;8.73;;
25153;SDS011;47555;51.038;6.280;2023-03-20T05:19:20;18.95;;;8.23;;
25153;SDS011;47555;51.038;6.280;2023-03-20T05:21:46;18.65;;;8.68;;
25153;SDS011;47555;51.038;6.280;2023-03-20T05:24:11;18.58;;;8.07;;
25153;SDS011;47555;51.038;6.280;2023-03-20T05:26:37;20.52;;;8.82;;
25153;SDS011;47555;51.038;6.280;2023-03-20T05:29:05;19.83;;;8.50;;
25153;SDS011;47555;51.038;6.280;2023-03-20T05:31:31;16.17;;;7.53;;
25153;SDS011;47555;51.038;6.280;2023-03-20T05:33:56;18.02;;;8.02;;
25153;SDS011;47555;51.038;6.280;2023-03-20T05:36:22;17.45;;;7.13;;
25153;SDS011;47555;51.038;6.280;2023-03-20T05:38:47;16.25;;;7.40;;
25153;SDS011;47555;51.038;6.280;2023-03-20T05:41:13;18.55;;;7.45;;
25153;SDS011;47555;51.038;6.280;2023-03-20T05:43:38;14.60;;;7.75;;
25153;SDS011;47555;51.038;6.280;2023-03-20T05:46:04;15.90;;;6.50;;
25153;SDS011;47555;51.038;6.280;2023-03-20T05:48:30;15.50;;;7.50;;
25153;SDS011;47555;51.038;6.280;2023-03-20T05:50:55;15.40;;;7.07;;
25153;SDS011;47555;51.038;6.280;2023-03-20T05:53:21;18.15;;;7.38;;
25153;SDS011;47555;51.038;6.280;2023-03-20T05:55:46;15.45;;;6.15;;
25153;SDS011;47555;51.038;6.280;2023-03-20T05:58:12;14.30;;;6.68;;
25153;SDS011;47555;51.038;6.280;2023-03-20T06:00:38;14.02;;;6.28;;
25153;SDS011;47555;51.038;6.280;2023-03-20T06:03:04;13.57;;;6.50;;
25153;SDS011;47555;51.038;6.280;2023-03-20T06:05:31;14.77;;;6.57;;
25153;SDS011;47555;51.038;6.280;2023-03-20T06:07:57;18.60;;;7.50;;
25153;SDS011;47555;51.038;6.280;2023-03-20T06:10:22;14.98;;;7.00;;
25153;SDS011;47555;51.038;6.280;2023-03-20T06:12:48;18.70;;;7.93;;
25153;SDS011;47555;51.038;6.280;2023-03-20T06:15:14;17.13;;;7.03;;
25153;SDS011;47555;51.038;6.280;2023-03-20T06:17:39;16.58;;;7.13;;
25153;SDS011;47555;51.038;6.280;2023-03-20T06:20:05;18.88;;;6.97;;
25153;SDS011;47555;51.038;6.280;2023-03-20T06:22:32;16.75;;;7.05;;
25153;SDS011;47555;51.038;6.280;2023-03-20T06:24:57;16.73;;;6.30;;
25153;SDS011;47555;51.038;6.280;2023-03-20T06:27:23;12.40;;;5.82;;
25153;SDS011;47555;51.038;6.280;2023-03-20T06:29:48;17.38;;;6.57;;
25153;SDS011;47555;51.038;6.280;2023-03-20T06:32:14;15.70;;;7.45;;
25153;SDS011;47555;51.038;6.280;2023-03-20T06:34:41;14.15;;;6.68;;
25153;SDS011;47555;51.038;6.280;2023-03-20T06:37:06;15.85;;;5.90;;
25153;SDS011;47555;51.038;6.280;2023-03-20T06:39:32;13.57;;;6.78;;
25153;SDS011;47555;51.038;6.280;2023-03-20T06:41:57;13.18;;;6.32;;
25153;SDS011;47555;51.038;6.280;2023-03-20T06:44:23;15.80;;;7.10;;
25153;SDS011;47555;51.038;6.280;2023-03-20T06:46:49;17.50;;;6.32;;
25153;SDS011;47555;51.038;6.280;2023-03-20T06:49:15;15.00;;;6.50;;
25153;SDS011;47555;51.038;6.280;2023-03-20T06:51:40;11.93;;;5.40;;
25153;SDS011;47555;51.038;6.280;2023-03-20T06:54:06;13.75;;;6.20;;
25153;SDS011;47555;51.038;6.280;2023-03-20T06:56:31;11.18;;;5.25;;
25153;SDS011;47555;51.038;6.280;2023-03-20T06:58:57;15.98;;;6.20;;
25153;SDS011;47555;51.038;6.280;2023-03-20T07:01:23;14.65;;;5.80;;
25153;SDS011;47555;51.038;6.280;2023-03-20T07:03:48;12.68;;;6.28;;
25153;SDS011;47555;51.038;6.280;2023-03-20T07:06:14;11.88;;;5.60;;
25153;SDS011;47555;51.038;6.280;2023-03-20T07:08:42;12.85;;;5.63;;
25153;SDS011;47555;51.038;6.280;2023-03-20T07:11:08;16.23;;;7.03;;
25153;SDS011;47555;51.038;6.280;2023-03-20T07:13:34;16.33;;;6.43;;
25153;SDS011;47555;51.038;6.280;2023-03-20T07:16:00;12.98;;;5.90;;
25153;SDS011;47555;51.038;6.280;2023-03-20T07:18:26;15.13;;;6.28;;
25153;SDS011;47555;51.038;6.280;2023-03-20T07:20:52;12.15;;;6.43;;
25153;SDS011;47555;51.038;6.280;2023-03-20T07:23:18;15.07;;;6.05;;
25153;SDS011;47555;51.038;6.280;2023-03-20T07:25:43;13.32;;;6.20;;
25153;SDS011;47555;51.038;6.280;2023-03-20T07:28:09;14.52;;;6.25;;
25153;SDS011;47555;51.038;6.280;2023-03-20T07:30:35;15.07;;;6.30;;
25153;SDS011;47555;51.038;6.280;2023-03-20T07:33:01;11.77;;;5.53;;
25153;SDS011;47555;51.038;6.280;2023-03-20T07:35:27;15.48;;;6.43;;
25153;SDS011;47555;51.038;6.280;2023-03-20T07:37:52;14.70;;;5.95;;
25153;SDS011;47555;51.038;6.280;2023-03-20T07:40:18;12.82;;;6.00;;
25153;SDS011;47555;51.038;6.280;2023-03-20T07:42:43;17.48;;;6.45;;
25153;SDS011;47555;51.038;6.280;2023-03-20T07:45:11;12.70;;;5.75;;
25153;SDS011;47555;51.038;6.280;2023-03-20T07:47:37;17.80;;;6.68;;
25153;SDS011;47555;51.038;6.280;2023-03-20T07:50:03;15.07;;;6.07;;
25153;SDS011;47555;51.038;6.280;2023-03-20T07:52:29;12.52;;;6.03;;
25153;SDS011;47555;51.038;6.280;2023-03-20T07:54:55;12.40;;;5.82;;
25153;SDS011;47555;51.038;6.280;2023-03-20T07:57:21;13.35;;;6.45;;
25153;SDS011;47555;51.038;6.280;2023-03-20T07:59:46;14.48;;;6.18;;
25153;SDS011;47555;51.038;6.280;2023-03-20T08:02:15;17.55;;;6.90;;
25153;SDS011;47555;51.038;6.280;2023-03-20T08:04:42;14.52;;;5.97;;
25153;SDS011;47555;51.038;6.280;2023-03-20T08:07:08;12.90;;;6.25;;
25153;SDS011;47555;51.038;6.280;2023-03-20T08:09:33;16.85;;;5.88;;
25153;SDS011;47555;51.038;6.280;2023-03-20T08:11:59;13.50;;;5.35;;
25153;SDS011;47555;51.038;6.280;2023-03-20T08:14:25;14.70;;;5.90;;
25153;SDS011;47555;51.038;6.280;2023-03-20T08:16:50;13.88;;;6.07;;
25153;SDS011;47555;51.038;6.280;2023-03-20T08:19:16;15.32;;;5.63;;
25153;SDS011;47555;51.038;6.280;2023-03-20T08:21:41;14.20;;;6.20;;
25153;SDS011;47555;51.038;6.280;2023-03-20T08:24:07;14.65;;;6.20;;
25153;SDS011;47555;51.038;6.280;2023-03-20T08:26:33;17.13;;;7.13;;
25153;SDS011;47555;51.038;6.280;2023-03-20T08:28:59;15.77;;;7.75;;
25153;SDS011;47555;51.038;6.280;2023-03-20T08:31:24;16.95;;;7.25;;
25153;SDS011;47555;51.038;6.280;2023-03-20T08:33:50;15.80;;;5.55;;
25153;SDS011;47555;51.038;6.280;2023-03-20T08:36:16;12.63;;;6.03;;
25153;SDS011;47555;51.038;6.280;2023-03-20T08:38:44;11.70;;;5.05;;
25153;SDS011;47555;51.038;6.280;2023-03-20T08:41:10;11.40;;;5.63;;
25153;SDS011;47555;51.038;6.280;2023-03-20T08:43:36;11.73;;;5.05;;
25153;SDS011;47555;51.038;6.280;2023-03-20T08:46:02;13.95;;;5.70;;
25153;SDS011;47555;51.038;6.280;2023-03-20T08:48:28;12.80;;;5.97;;
25153;SDS011;47555;51.038;6.280;2023-03-20T08:50:53;12.35;;;5.13;;
25153;SDS011;47555;51.038;6.280;2023-03-20T08:53:19;11.98;;;5.38;;
25153;SDS011;47555;51.038;6.280;2023-03-20T08:55:48;11.40;;;4.40;;
25153;SDS011;47555;51.038;6.280;2023-03-20T08:58:15;12.73;;;5.00;;
25153;SDS011;47555;51.038;6.280;2023-03-20T09:00:41;10.50;;;4.78;;
25153;SDS011;47555;51.038;6.280;2023-03-20T09:03:10;10.85;;;5.05;;
25153;SDS011;47555;51.038;6.280;2023-03-20T09:05:38;7.65;;;3.85;;
25153;SDS011;47555;51.038;6.280;2023-03-20T09:08:04;11.57;;;4.97;;
25153;SDS011;47555;51.038;6.280;2023-03-20T09:10:29;11.82;;;4.32;;
25153;SDS011;47555;51.038;6.280;2023-03-20T09:12:55;12.02;;;4.95;;
25153;SDS011;47555;51.038;6.280;2023-03-20T09:15:21;11.80;;;4.45;;
25153;SDS011;47555;51.038;6.280;2023-03-20T09:17:46;11.75;;;3.90;;
25153;SDS011;47555;51.038;6.280;2023-03-20T09:20:12;11.52;;;4.70;;
25153;SDS011;47555;51.038;6.280;2023-03-20T09:22:37;9.80;;;5.07;;
25153;SDS011;47555;51.038;6.280;2023-03-20T09:25:05;10.30;;;3.95;;
25153;SDS011;47555;51.038;6.280;2023-03-20T09:27:31;10.45;;;4.38;;
25153;SDS011;47555;51.038;6.280;2023-03-20T09:29:57;7.97;;;3.33;;
25153;SDS011;47555;51.038;6.280;2023-03-20T09:32:22;9.90;;;3.50;;
25153;SDS011;47555;51.038;6.280;2023-03-20T09:34:48;11.30;;;4.13;;
25153;SDS011;47555;51.038;6.280;2023-03-20T09:37:13;9.70;;;3.80;;
25153;SDS011;47555;51.038;6.280;2023-03-20T09:39:39;9.13;;;3.90;;
25153;SDS011;47555;51.038;6.280;2023-03-20T09:42:13;9.07;;;4.20;;
25153;SDS011;47555;51.038;6.280;2023-03-20T09:45:10;9.05;;;3.13;;
25153;SDS011;47555;51.038;6.280;2023-03-20T09:47:49;6.65;;;3.00;;
25153;SDS011;47555;51.038;6.280;2023-03-20T09:50:37;12.48;;;4.47;;
25153;SDS011;47555;51.038;6.280;2023-03-20T09:54:13;11.98;;;3.28;;
25153;SDS011;47555;51.038;6.280;2023-03-20T09:56:20;7.82;;;3.38;;
25153;SDS011;47555;51.038;6.280;2023-03-20T09:58:51;9.10;;;3.15;;
25153;SDS011;47555;51.038;6.280;2023-03-20T10:01:23;10.45;;;4.80;;
25153;SDS011;47555;51.038;6.280;2023-03-20T10:03:57;6.30;;;2.65;;
25153;SDS011;47555;51.038;6.280;2023-03-20T10:06:30;7.80;;;2.40;;
25153;SDS011;47555;51.038;6.280;2023-03-20T10:08:58;6.82;;;2.80;;
25153;SDS011;47555;51.038;6.280;2023-03-20T10:14:28;4.85;;;2.78;;
25153;SDS011;47555;51.038;6.280;2023-03-20T10:17:07;7.68;;;3.10;;
25153;SDS011;47555;51.038;6.280;2023-03-20T10:22:47;10.25;;;3.20;;
25153;SDS011;47555;51.038;6.280;2023-03-20T10:25:33;6.20;;;2.53;;
25153;SDS011;47555;51.038;6.280;2023-03-20T10:28:05;10.35;;;2.85;;
25153;SDS011;47555;51.038;6.280;2023-03-20T10:39:10;8.45;;;3.45;;
25153;SDS011;47555;51.038;6.280;2023-03-20T10:41:48;9.32;;;3.63;;
25153;SDS011;47555;51.038;6.280;2023-03-20T10:44:25;7.28;;;2.75;;
25153;SDS011;47555;51.038;6.280;2023-03-20T10:46:55;6.30;;;2.83;;
25153;SDS011;47555;51.038;6.280;2023-03-20T10:51:56;6.28;;;3.10;;
25153;SDS011;47555;51.038;6.280;2023-03-20T10:54:30;6.45;;;2.83;;
25153;SDS011;47555;51.038;6.280;2023-03-20T10:57:22;10.32;;;3.47;;
25153;SDS011;47555;51.038;6.280;2023-03-20T10:59:49;9.05;;;3.08;;
25153;SDS011;47555;51.038;6.280;2023-03-20T11:02:17;7.28;;;2.90;;
25153;SDS011;47555;51.038;6.280;2023-03-20T11:04:45;7.20;;;2.58;;
25153;SDS011;47555;51.038;6.280;2023-03-20T11:07:18;9.90;;;2.60;;
25153;SDS011;47555;51.038;6.280;2023-03-20T11:10:05;5.75;;;2.60;;
25153;SDS011;47555;51.038;6.280;2023-03-20T11:12:35;6.85;;;2.55;;
25153;SDS011;47555;51.038;6.280;2023-03-20T11:15:02;3.80;;;2.33;;
25153;SDS011;47555;51.038;6.280;2023-03-20T11:17:39;7.30;;;3.05;;
25153;SDS011;47555;51.038;6.280;2023-03-20T11:20:05;5.65;;;2.85;;
25153;SDS011;47555;51.038;6.280;2023-03-20T11:22:39;8.90;;;3.42;;
25153;SDS011;47555;51.038;6.280;2023-03-20T11:25:05;7.03;;;3.05;;
25153;SDS011;47555;51.038;6.280;2023-03-20T11:27:32;7.15;;;2.70;;
25153;SDS011;47555;51.038;6.280;2023-03-20T11:29:59;6.00;;;3.20;;
25153;SDS011;47555;51.038;6.280;2023-03-20T11:32:32;7.38;;;2.78;;
25153;SDS011;47555;51.038;6.280;2023-03-20T11:35:18;8.30;;;3.50;;
25153;SDS011;47555;51.038;6.280;2023-03-20T11:37:51;5.55;;;3.10;;
25153;SDS011;47555;51.038;6.280;2023-03-20T11:40:31;7.35;;;2.72;;
25153;SDS011;47555;51.038;6.280;2023-03-20T11:45:48;8.98;;;3.22;;
25153;SDS011;47555;51.038;6.280;2023-03-20T11:48:24;10.52;;;2.85;;
25153;SDS011;47555;51.038;6.280;2023-03-20T11:51:07;5.72;;;2.80;;
25153;SDS011;47555;51.038;6.280;2023-03-20T11:56:11;7.05;;;2.85;;
25153;SDS011;47555;51.038;6.280;2023-03-20T12:01:36;5.63;;;2.30;;
25153;SDS011;47555;51.038;6.280;2023-03-20T12:04:10;6.32;;;2.33;;
25153;SDS011;47555;51.038;6.280;2023-03-20T12:06:46;4.93;;;2.27;;
25153;SDS011;47555;51.038;6.280;2023-03-20T12:09:17;3.50;;;1.90;;
25153;SDS011;47555;51.038;6.280;2023-03-20T12:14:26;4.60;;;2.20;;
25153;SDS011;47555;51.038;6.280;2023-03-20T12:16:57;7.25;;;2.30;;
25153;SDS011;47555;51.038;6.280;2023-03-20T12:19:38;4.28;;;1.90;;
25153;SDS011;47555;51.038;6.280;2023-03-20T12:22:22;7.57;;;2.40;;
25153;SDS011;47555;51.038;6.280;2023-03-20T12:24:57;5.43;;;2.58;;
25153;SDS011;47555;51.038;6.280;2023-03-20T12:27:29;5.10;;;2.17;;
25153;SDS011;47555;51.038;6.280;2023-03-20T12:35:43;7.32;;;2.05;;
25153;SDS011;47555;51.038;6.280;2023-03-20T12:38:26;4.95;;;2.55;;
25153;SDS011;47555;51.038;6.280;2023-03-20T12:40:57;4.85;;;2.40;;
25153;SDS011;47555;51.038;6.280;2023-03-20T12:43:39;5.57;;;2.58;;
25153;SDS011;47555;51.038;6.280;2023-03-20T12:52:12;6.40;;;2.67;;
25153;SDS011;47555;51.038;6.280;2023-03-20T12:57:42;8.57;;;3.22;;
25153;SDS011;47555;51.038;6.280;2023-03-20T13:00:22;8.10;;;2.55;;
25153;SDS011;47555;51.038;6.280;2023-03-20T13:05:45;9.40;;;2.85;;
25153;SDS011;47555;51.038;6.280;2023-03-20T13:16:07;7.35;;;3.35;;
25153;SDS011;47555;51.038;6.280;2023-03-20T13:21:31;6.85;;;3.40;;
25153;SDS011;47555;51.038;6.280;2023-03-20T13:26:43;11.48;;;3.40;;
25153;SDS011;47555;51.038;6.280;2023-03-20T13:35:38;12.18;;;3.30;;
25153;SDS011;47555;51.038;6.280;2023-03-20T13:38:00;9.02;;;3.63;;
25153;SDS011;47555;51.038;6.280;2023-03-20T13:40:54;7.82;;;2.60;;
25153;SDS011;47555;51.038;6.280;2023-03-20T13:43:36;6.45;;;3.00;;
25153;SDS011;47555;51.038;6.280;2023-03-20T13:46:06;5.20;;;3.67;;
25153;SDS011;47555;51.038;6.280;2023-03-20T13:48:38;8.23;;;3.50;;
25153;SDS011;47555;51.038;6.280;2023-03-20T13:51:10;6.35;;;3.72;;
25153;SDS011;47555;51.038;6.280;2023-03-20T13:56:29;6.43;;;3.17;;
25153;SDS011;47555;51.038;6.280;2023-03-20T14:04:43;6.72;;;2.83;;
25153;SDS011;47555;51.038;6.280;2023-03-20T14:07:28;9.40;;;2.88;;
25153;SDS011;47555;51.038;6.280;2023-03-20T14:09:55;5.25;;;3.15;;
25153;SDS011;47555;51.038;6.280;2023-03-20T14:12:25;7.32;;;2.72;;
25153;SDS011;47555;51.038;6.280;2023-03-20T14:14:56;6.97;;;2.45;;
25153;SDS011;47555;51.038;6.280;2023-03-20T14:19:54;9.07;;;2.85;;
25153;SDS011;47555;51.038;6.280;2023-03-20T14:22:25;5.55;;;2.78;;
25153;SDS011;47555;51.038;6.280;2023-03-20T14:24:55;6.28;;;2.58;;
25153;SDS011;47555;51.038;6.280;2023-03-20T14:27:28;7.30;;;3.03;;
25153;SDS011;47555;51.038;6.280;2023-03-20T14:30:38;7.20;;;3.35;;
25153;SDS011;47555;51.038;6.280;2023-03-20T14:32:59;5.70;;;2.80;;
25153;SDS011;47555;51.038;6.280;2023-03-20T14:35:34;6.57;;;2.58;;
25153;SDS011;47555;51.038;6.280;2023-03-20T14:38:14;6.50;;;2.67;;
25153;SDS011;47555;51.038;6.280;2023-03-20T14:43:51;6.88;;;3.15;;
25153;SDS011;47555;51.038;6.280;2023-03-20T14:49:22;4.78;;;2.30;;
25153;SDS011;47555;51.038;6.280;2023-03-20T14:51:55;4.13;;;2.33;;
25153;SDS011;47555;51.038;6.280;2023-03-20T14:54:38;7.75;;;2.90;;
25153;SDS011;47555;51.038;6.280;2023-03-20T14:57:30;8.30;;;2.42;;
25153;SDS011;47555;51.038;6.280;2023-03-20T14:59:56;8.83;;;2.90;;
25153;SDS011;47555;51.038;6.280;2023-03-20T15:02:26;7.55;;;2.30;;
25153;SDS011;47555;51.038;6.280;2023-03-20T15:04:58;10.20;;;3.00;;
25153;SDS011;47555;51.038;6.280;2023-03-20T15:07:30;8.15;;;2.72;;
25153;SDS011;47555;51.038;6.280;2023-03-20T15:10:01;7.38;;;2.83;;
25153;SDS011;47555;51.038;6.280;2023-03-20T15:12:29;4.75;;;2.45;;
25153;SDS011;47555;51.038;6.280;2023-03-20T15:15:00;7.25;;;2.60;;
25153;SDS011;47555;51.038;6.280;2023-03-20T15:17:35;6.85;;;2.85;;
25153;SDS011;47555;51.038;6.280;2023-03-20T15:20:08;7.30;;;2.60;;
25153;SDS011;47555;51.038;6.280;2023-03-20T15:25:22;6.45;;;2.65;;
25153;SDS011;47555;51.038;6.280;2023-03-20T15:27:51;9.33;;;2.83;;
25153;SDS011;47555;51.038;6.280;2023-03-20T15:30:18;4.30;;;2.20;;
25153;SDS011;47555;51.038;6.280;2023-03-20T15:32:47;4.13;;;1.80;;
25153;SDS011;47555;51.038;6.280;2023-03-20T15:35:15;6.78;;;2.00;;
25153;SDS011;47555;51.038;6.280;2023-03-20T15:37:45;3.13;;;1.92;;
25153;SDS011;47555;51.038;6.280;2023-03-20T15:40:13;9.10;;;2.20;;
25153;SDS011;47555;51.038;6.280;2023-03-20T15:42:50;9.60;;;2.30;;
25153;SDS011;47555;51.038;6.280;2023-03-20T15:45:22;4.68;;;2.03;;
25153;SDS011;47555;51.038;6.280;2023-03-20T15:47:50;4.15;;;2.60;;
25153;SDS011;47555;51.038;6.280;2023-03-20T15:50:23;6.25;;;2.83;;
25153;SDS011;47555;51.038;6.280;2023-03-20T15:52:48;4.43;;;2.30;;
25153;SDS011;47555;51.038;6.280;2023-03-20T15:55:19;7.20;;;2.80;;
25153;SDS011;47555;51.038;6.280;2023-03-20T15:57:46;7.63;;;2.70;;
25153;SDS011;47555;51.038;6.280;2023-03-20T16:05:24;9.32;;;2.38;;
25153;SDS011;47555;51.038;6.280;2023-03-20T16:07:51;4.80;;;2.30;;
25153;SDS011;47555;51.038;6.280;2023-03-20T16:10:19;10.88;;;2.80;;
25153;SDS011;47555;51.038;6.280;2023-03-20T16:12:49;6.50;;;2.78;;
25153;SDS011;47555;51.038;6.280;2023-03-20T16:15:18;5.93;;;2.08;;
25153;SDS011;47555;51.038;6.280;2023-03-20T16:17:45;11.02;;;2.50;;
25153;SDS011;47555;51.038;6.280;2023-03-20T16:20:14;6.10;;;2.75;;
25153;SDS011;47555;51.038;6.280;2023-03-20T16:22:41;4.30;;;2.08;;
25153;SDS011;47555;51.038;6.280;2023-03-20T16:25:13;5.45;;;1.95;;
25153;SDS011;47555;51.038;6.280;2023-03-20T16:30:08;5.70;;;2.20;;
25153;SDS011;47555;51.038;6.280;2023-03-20T16:33:00;6.15;;;2.92;;
25153;SDS011;47555;51.038;6.280;2023-03-20T16:35:36;6.13;;;2.03;;
25153;SDS011;47555;51.038;6.280;2023-03-20T16:38:13;7.03;;;2.58;;
25153;SDS011;47555;51.038;6.280;2023-03-20T16:43:39;3.42;;;2.30;;
25153;SDS011;47555;51.038;6.280;2023-03-20T16:46:05;4.90;;;2.42;;
25153;SDS011;47555;51.038;6.280;2023-03-20T16:48:32;5.97;;;2.72;;
25153;SDS011;47555;51.038;6.280;2023-03-20T16:51:07;7.05;;;3.22;;
25153;SDS011;47555;51.038;6.280;2023-03-20T16:53:41;7.85;;;3.05;;
25153;SDS011;47555;51.038;6.280;2023-03-20T16:56:11;8.15;;;3.60;;
25153;SDS011;47555;51.038;6.280;2023-03-20T16:58:40;7.10;;;2.72;;
25153;SDS011;47555;51.038;6.280;2023-03-20T17:01:07;5.68;;;2.45;;
25153;SDS011;47555;51.038;6.280;2023-03-20T17:03:48;7.13;;;3.28;;